sensor_id;sensor_type;location;lat;lon;timestamp;P1;durP1;ratioP1;P2;durP2;ratioP2
55417;SDS011;41287;47.554;7.844;2023-01-31T00:01:18;7.55;;;3.65;;
55417;SDS011;41287;47.554;7.844;2023-01-31T00:03:46;5.88;;;3.15;;
55417;SDS011;41287;47.554;7.844;2023-01-31T00:06:14;6.30;;;3.63;;
55417;SDS011;41287;47.554;7.844;2023-01-31T00:08:44;6.38;;;3.58;;
55417;SDS011;41287;47.554;7.844;2023-01-31T00:11:11;6.28;;;3.25;;
55417;SDS011;41287;47.554;7.844;2023-01-31T00:13:38;5.82;;;3.20;;
55417;SDS011;41287;47.554;7.844;2023-01-31T00:16:04;6.25;;;3.40;;
55417;SDS011;41287;47.554;7.844;2023-01-31T00:18:30;7.10;;;2.97;;
55417;SDS011;41287;47.554;7.844;2023-01-31T00:20:56;6.45;;;3.55;;
55417;SDS011;41287;47.554;7.844;2023-01-31T00:23:21;4.72;;;3.03;;
55417;SDS011;41287;47.554;7.844;2023-01-31T00:25:46;6.65;;;3.40;;
55417;SDS011;41287;47.554;7.844;2023-01-31T00:28:12;5.65;;;3.33;;
55417;SDS011;41287;47.554;7.844;2023-01-31T00:30:37;5.10;;;3.25;;
55417;SDS011;41287;47.554;7.844;2023-01-31T00:33:03;4.57;;;2.53;;
55417;SDS011;41287;47.554;7.844;2023-01-31T00:35:28;6.07;;;3.15;;
55417;SDS011;41287;47.554;7.844;2023-01-31T00:37:54;4.97;;;3.03;;
55417;SDS011;41287;47.554;7.844;2023-01-31T00:40:21;6.22;;;3.50;;
55417;SDS011;41287;47.554;7.844;2023-01-31T00:42:47;5.00;;;2.90;;
55417;SDS011;41287;47.554;7.844;2023-01-31T00:45:12;9.25;;;3.08;;
55417;SDS011;41287;47.554;7.844;2023-01-31T00:47:37;5.15;;;2.97;;
55417;SDS011;41287;47.554;7.844;2023-01-31T00:50:03;4.45;;;3.00;;
55417;SDS011;41287;47.554;7.844;2023-01-31T00:52:33;5.18;;;2.75;;
55417;SDS011;41287;47.554;7.844;2023-01-31T00:54:58;5.28;;;3.35;;
55417;SDS011;41287;47.554;7.844;2023-01-31T00:57:23;4.82;;;3.00;;
55417;SDS011;41287;47.554;7.844;2023-01-31T00:59:48;6.93;;;3.00;;
55417;SDS011;41287;47.554;7.844;2023-01-31T01:02:14;6.90;;;3.25;;
55417;SDS011;41287;47.554;7.844;2023-01-31T01:04:39;6.25;;;3.25;;
55417;SDS011;41287;47.554;7.844;2023-01-31T01:07:04;7.10;;;3.50;;
55417;SDS011;41287;47.554;7.844;2023-01-31T01:09:30;6.03;;;2.90;;
55417;SDS011;41287;47.554;7.844;2023-01-31T01:11:55;7.10;;;3.17;;
55417;SDS011;41287;47.554;7.844;2023-01-31T01:14:21;5.38;;;3.10;;
55417;SDS011;41287;47.554;7.844;2023-01-31T01:16:46;4.72;;;2.67;;
55417;SDS011;41287;47.554;7.844;2023-01-31T01:19:13;4.13;;;2.45;;
55417;SDS011;41287;47.554;7.844;2023-01-31T01:21:42;7.32;;;2.90;;
55417;SDS011;41287;47.554;7.844;2023-01-31T01:24:12;5.15;;;3.22;;
55417;SDS011;41287;47.554;7.844;2023-01-31T01:26:40;4.35;;;2.60;;
55417;SDS011;41287;47.554;7.844;2023-01-31T01:29:06;4.82;;;2.88;;
55417;SDS011;41287;47.554;7.844;2023-01-31T01:31:32;4.75;;;2.92;;
55417;SDS011;41287;47.554;7.844;2023-01-31T01:33:58;6.07;;;2.60;;
55417;SDS011;41287;47.554;7.844;2023-01-31T01:36:25;5.30;;;2.95;;
55417;SDS011;41287;47.554;7.844;2023-01-31T01:38:51;6.47;;;3.00;;
55417;SDS011;41287;47.554;7.844;2023-01-31T01:41:17;5.72;;;3.28;;
55417;SDS011;41287;47.554;7.844;2023-01-31T01:46:15;5.18;;;2.67;;
55417;SDS011;41287;47.554;7.844;2023-01-31T01:48:49;7.57;;;2.95;;
55417;SDS011;41287;47.554;7.844;2023-01-31T01:51:17;4.32;;;2.92;;
55417;SDS011;41287;47.554;7.844;2023-01-31T01:53:45;6.00;;;2.80;;
55417;SDS011;41287;47.554;7.844;2023-01-31T01:56:15;4.07;;;2.70;;
55417;SDS011;41287;47.554;7.844;2023-01-31T01:58:46;5.72;;;2.90;;
55417;SDS011;41287;47.554;7.844;2023-01-31T02:01:18;4.75;;;2.97;;
55417;SDS011;41287;47.554;7.844;2023-01-31T02:03:44;4.97;;;2.50;;
55417;SDS011;41287;47.554;7.844;2023-01-31T02:06:12;4.20;;;2.53;;
55417;SDS011;41287;47.554;7.844;2023-01-31T02:08:38;4.10;;;2.83;;
55417;SDS011;41287;47.554;7.844;2023-01-31T02:13:46;9.15;;;2.85;;
55417;SDS011;41287;47.554;7.844;2023-01-31T02:16:14;4.95;;;2.58;;
55417;SDS011;41287;47.554;7.844;2023-01-31T02:18:40;3.65;;;2.47;;
55417;SDS011;41287;47.554;7.844;2023-01-31T02:21:31;5.50;;;2.70;;
55417;SDS011;41287;47.554;7.844;2023-01-31T02:30:08;5.72;;;2.78;;
55417;SDS011;41287;47.554;7.844;2023-01-31T02:32:59;4.15;;;2.40;;
55417;SDS011;41287;47.554;7.844;2023-01-31T02:40:39;5.15;;;2.67;;
55417;SDS011;41287;47.554;7.844;2023-01-31T02:46:07;4.53;;;2.80;;
55417;SDS011;41287;47.554;7.844;2023-01-31T02:48:41;5.13;;;2.60;;
55417;SDS011;41287;47.554;7.844;2023-01-31T02:51:21;5.35;;;2.47;;
55417;SDS011;41287;47.554;7.844;2023-01-31T02:53:58;3.90;;;2.63;;
55417;SDS011;41287;47.554;7.844;2023-01-31T02:56:32;4.47;;;2.60;;
55417;SDS011;41287;47.554;7.844;2023-01-31T02:59:02;4.60;;;2.38;;
55417;SDS011;41287;47.554;7.844;2023-01-31T03:01:32;4.60;;;2.45;;
55417;SDS011;41287;47.554;7.844;2023-01-31T03:04:01;4.50;;;2.80;;
55417;SDS011;41287;47.554;7.844;2023-01-31T03:09:13;4.38;;;2.55;;
55417;SDS011;41287;47.554;7.844;2023-01-31T03:17:25;4.57;;;2.47;;
55417;SDS011;41287;47.554;7.844;2023-01-31T03:22:55;5.13;;;2.67;;
55417;SDS011;41287;47.554;7.844;2023-01-31T03:25:24;3.63;;;2.45;;
55417;SDS011;41287;47.554;7.844;2023-01-31T03:27:54;4.53;;;2.50;;
55417;SDS011;41287;47.554;7.844;2023-01-31T03:30:46;4.78;;;2.75;;
55417;SDS011;41287;47.554;7.844;2023-01-31T03:33:14;3.50;;;2.50;;
55417;SDS011;41287;47.554;7.844;2023-01-31T03:35:49;4.10;;;2.50;;
55417;SDS011;41287;47.554;7.844;2023-01-31T03:38:20;5.00;;;2.78;;
55417;SDS011;41287;47.554;7.844;2023-01-31T03:40:53;3.10;;;2.35;;
55417;SDS011;41287;47.554;7.844;2023-01-31T03:46:34;3.90;;;2.33;;
55417;SDS011;41287;47.554;7.844;2023-01-31T03:49:05;3.78;;;2.30;;
55417;SDS011;41287;47.554;7.844;2023-01-31T03:51:35;3.63;;;2.15;;
55417;SDS011;41287;47.554;7.844;2023-01-31T03:54:05;3.95;;;2.20;;
55417;SDS011;41287;47.554;7.844;2023-01-31T03:56:40;3.20;;;2.45;;
55417;SDS011;41287;47.554;7.844;2023-01-31T03:59:13;3.78;;;2.08;;
55417;SDS011;41287;47.554;7.844;2023-01-31T04:01:45;4.78;;;2.22;;
55417;SDS011;41287;47.554;7.844;2023-01-31T04:04:17;5.65;;;3.15;;
55417;SDS011;41287;47.554;7.844;2023-01-31T04:06:44;3.38;;;2.10;;
55417;SDS011;41287;47.554;7.844;2023-01-31T04:09:09;4.15;;;2.30;;
55417;SDS011;41287;47.554;7.844;2023-01-31T04:11:38;4.95;;;2.60;;
55417;SDS011;41287;47.554;7.844;2023-01-31T04:14:05;3.65;;;2.08;;
55417;SDS011;41287;47.554;7.844;2023-01-31T04:16:31;4.47;;;2.20;;
55417;SDS011;41287;47.554;7.844;2023-01-31T04:18:57;3.88;;;2.47;;
55417;SDS011;41287;47.554;7.844;2023-01-31T04:21:24;3.75;;;2.33;;
55417;SDS011;41287;47.554;7.844;2023-01-31T04:23:50;4.28;;;2.13;;
55417;SDS011;41287;47.554;7.844;2023-01-31T04:26:15;4.38;;;2.33;;
55417;SDS011;41287;47.554;7.844;2023-01-31T04:28:41;4.07;;;2.00;;
55417;SDS011;41287;47.554;7.844;2023-01-31T04:31:06;4.40;;;2.35;;
55417;SDS011;41287;47.554;7.844;2023-01-31T04:33:32;5.90;;;2.42;;
55417;SDS011;41287;47.554;7.844;2023-01-31T04:35:57;3.92;;;2.22;;
55417;SDS011;41287;47.554;7.844;2023-01-31T04:38:23;3.72;;;2.03;;
55417;SDS011;41287;47.554;7.844;2023-01-31T04:40:48;4.28;;;2.10;;
55417;SDS011;41287;47.554;7.844;2023-01-31T04:43:13;4.18;;;2.00;;
55417;SDS011;41287;47.554;7.844;2023-01-31T04:45:39;3.53;;;2.03;;
55417;SDS011;41287;47.554;7.844;2023-01-31T04:48:04;2.72;;;2.00;;
55417;SDS011;41287;47.554;7.844;2023-01-31T04:50:30;5.63;;;2.42;;
55417;SDS011;41287;47.554;7.844;2023-01-31T04:52:55;4.28;;;2.28;;
55417;SDS011;41287;47.554;7.844;2023-01-31T04:55:20;6.07;;;2.42;;
55417;SDS011;41287;47.554;7.844;2023-01-31T04:57:46;2.70;;;1.80;;
55417;SDS011;41287;47.554;7.844;2023-01-31T05:00:11;4.45;;;2.53;;
55417;SDS011;41287;47.554;7.844;2023-01-31T05:02:37;5.07;;;2.35;;
55417;SDS011;41287;47.554;7.844;2023-01-31T05:05:04;3.83;;;2.33;;
55417;SDS011;41287;47.554;7.844;2023-01-31T05:07:30;5.18;;;2.22;;
55417;SDS011;41287;47.554;7.844;2023-01-31T05:09:55;3.22;;;2.13;;
55417;SDS011;41287;47.554;7.844;2023-01-31T05:12:21;2.70;;;1.85;;
55417;SDS011;41287;47.554;7.844;2023-01-31T05:14:46;3.67;;;2.00;;
55417;SDS011;41287;47.554;7.844;2023-01-31T05:17:11;4.15;;;1.83;;
55417;SDS011;41287;47.554;7.844;2023-01-31T05:19:37;2.28;;;1.52;;
55417;SDS011;41287;47.554;7.844;2023-01-31T05:22:02;2.22;;;1.63;;
55417;SDS011;41287;47.554;7.844;2023-01-31T05:24:28;3.60;;;1.90;;
55417;SDS011;41287;47.554;7.844;2023-01-31T05:26:55;3.42;;;1.77;;
55417;SDS011;41287;47.554;7.844;2023-01-31T05:29:25;2.20;;;1.50;;
55417;SDS011;41287;47.554;7.844;2023-01-31T05:31:54;3.22;;;1.75;;
55417;SDS011;41287;47.554;7.844;2023-01-31T05:34:23;2.78;;;1.73;;
55417;SDS011;41287;47.554;7.844;2023-01-31T05:36:49;3.05;;;1.65;;
55417;SDS011;41287;47.554;7.844;2023-01-31T05:39:17;4.75;;;2.35;;
55417;SDS011;41287;47.554;7.844;2023-01-31T05:41:43;3.63;;;2.08;;
55417;SDS011;41287;47.554;7.844;2023-01-31T05:44:10;4.55;;;2.20;;
55417;SDS011;41287;47.554;7.844;2023-01-31T05:46:36;4.88;;;2.42;;
55417;SDS011;41287;47.554;7.844;2023-01-31T05:49:02;5.13;;;2.20;;
55417;SDS011;41287;47.554;7.844;2023-01-31T05:51:28;3.03;;;2.10;;
55417;SDS011;41287;47.554;7.844;2023-01-31T05:53:53;3.17;;;2.10;;
55417;SDS011;41287;47.554;7.844;2023-01-31T05:56:20;4.32;;;2.05;;
55417;SDS011;41287;47.554;7.844;2023-01-31T05:58:46;4.13;;;1.83;;
55417;SDS011;41287;47.554;7.844;2023-01-31T06:01:15;5.85;;;2.17;;
55417;SDS011;41287;47.554;7.844;2023-01-31T06:03:41;3.53;;;2.20;;
55417;SDS011;41287;47.554;7.844;2023-01-31T06:06:07;5.53;;;2.25;;
55417;SDS011;41287;47.554;7.844;2023-01-31T06:08:32;6.20;;;3.20;;
55417;SDS011;41287;47.554;7.844;2023-01-31T06:11:00;5.85;;;2.90;;
55417;SDS011;41287;47.554;7.844;2023-01-31T06:13:26;3.63;;;2.50;;
55417;SDS011;41287;47.554;7.844;2023-01-31T06:15:51;5.50;;;2.75;;
55417;SDS011;41287;47.554;7.844;2023-01-31T06:18:18;4.70;;;2.88;;
55417;SDS011;41287;47.554;7.844;2023-01-31T06:20:43;7.07;;;3.22;;
55417;SDS011;41287;47.554;7.844;2023-01-31T06:23:09;5.00;;;3.00;;
55417;SDS011;41287;47.554;7.844;2023-01-31T06:25:34;4.43;;;2.90;;
55417;SDS011;41287;47.554;7.844;2023-01-31T06:27:59;5.40;;;2.60;;
55417;SDS011;41287;47.554;7.844;2023-01-31T06:30:29;4.93;;;3.00;;
55417;SDS011;41287;47.554;7.844;2023-01-31T06:32:55;7.28;;;2.88;;
55417;SDS011;41287;47.554;7.844;2023-01-31T06:35:23;4.15;;;2.67;;
55417;SDS011;41287;47.554;7.844;2023-01-31T06:37:48;6.82;;;3.17;;
55417;SDS011;41287;47.554;7.844;2023-01-31T06:40:13;6.05;;;3.33;;
55417;SDS011;41287;47.554;7.844;2023-01-31T06:42:39;5.03;;;2.78;;
55417;SDS011;41287;47.554;7.844;2023-01-31T06:45:04;5.43;;;2.65;;
55417;SDS011;41287;47.554;7.844;2023-01-31T06:47:30;6.22;;;3.28;;
55417;SDS011;41287;47.554;7.844;2023-01-31T06:49:55;6.65;;;3.40;;
55417;SDS011;41287;47.554;7.844;2023-01-31T06:52:21;6.65;;;3.20;;
55417;SDS011;41287;47.554;7.844;2023-01-31T06:54:51;4.75;;;3.10;;
55417;SDS011;41287;47.554;7.844;2023-01-31T06:57:17;6.07;;;2.50;;
55417;SDS011;41287;47.554;7.844;2023-01-31T06:59:42;4.93;;;2.65;;
55417;SDS011;41287;47.554;7.844;2023-01-31T07:02:10;6.63;;;3.10;;
55417;SDS011;41287;47.554;7.844;2023-01-31T07:04:37;4.25;;;2.70;;
55417;SDS011;41287;47.554;7.844;2023-01-31T07:07:02;4.00;;;2.78;;
55417;SDS011;41287;47.554;7.844;2023-01-31T07:09:28;4.47;;;3.00;;
55417;SDS011;41287;47.554;7.844;2023-01-31T07:11:53;5.15;;;3.05;;
55417;SDS011;41287;47.554;7.844;2023-01-31T07:14:19;5.63;;;2.92;;
55417;SDS011;41287;47.554;7.844;2023-01-31T07:16:44;7.18;;;3.20;;
55417;SDS011;41287;47.554;7.844;2023-01-31T07:19:12;7.45;;;3.00;;
55417;SDS011;41287;47.554;7.844;2023-01-31T07:21:37;4.20;;;2.63;;
55417;SDS011;41287;47.554;7.844;2023-01-31T07:24:03;4.95;;;2.63;;
55417;SDS011;41287;47.554;7.844;2023-01-31T07:26:28;5.18;;;2.60;;
55417;SDS011;41287;47.554;7.844;2023-01-31T07:28:54;5.75;;;3.00;;
55417;SDS011;41287;47.554;7.844;2023-01-31T07:31:22;5.80;;;2.78;;
55417;SDS011;41287;47.554;7.844;2023-01-31T07:33:47;4.93;;;2.67;;
55417;SDS011;41287;47.554;7.844;2023-01-31T07:36:13;4.18;;;2.45;;
55417;SDS011;41287;47.554;7.844;2023-01-31T07:38:40;5.50;;;2.60;;
55417;SDS011;41287;47.554;7.844;2023-01-31T07:41:06;5.32;;;2.40;;
55417;SDS011;41287;47.554;7.844;2023-01-31T07:43:34;8.23;;;2.72;;
55417;SDS011;41287;47.554;7.844;2023-01-31T07:45:59;4.28;;;2.30;;
55417;SDS011;41287;47.554;7.844;2023-01-31T07:48:26;6.20;;;2.45;;
55417;SDS011;41287;47.554;7.844;2023-01-31T07:50:52;3.70;;;2.13;;
55417;SDS011;41287;47.554;7.844;2023-01-31T07:53:22;5.43;;;2.53;;
55417;SDS011;41287;47.554;7.844;2023-01-31T07:55:47;4.05;;;2.15;;
55417;SDS011;41287;47.554;7.844;2023-01-31T07:58:13;5.10;;;2.45;;
55417;SDS011;41287;47.554;7.844;2023-01-31T08:00:39;5.80;;;2.47;;
55417;SDS011;41287;47.554;7.844;2023-01-31T08:03:24;3.90;;;2.45;;
55417;SDS011;41287;47.554;7.844;2023-01-31T08:05:57;3.13;;;2.20;;
55417;SDS011;41287;47.554;7.844;2023-01-31T08:08:27;4.22;;;2.30;;
55417;SDS011;41287;47.554;7.844;2023-01-31T08:10:52;4.00;;;1.90;;
55417;SDS011;41287;47.554;7.844;2023-01-31T08:13:17;3.33;;;2.10;;
55417;SDS011;41287;47.554;7.844;2023-01-31T08:15:43;3.72;;;2.10;;
55417;SDS011;41287;47.554;7.844;2023-01-31T08:18:08;4.55;;;2.08;;
55417;SDS011;41287;47.554;7.844;2023-01-31T08:20:33;5.20;;;2.25;;
55417;SDS011;41287;47.554;7.844;2023-01-31T08:23:01;3.13;;;1.83;;
55417;SDS011;41287;47.554;7.844;2023-01-31T08:25:27;3.90;;;2.03;;
55417;SDS011;41287;47.554;7.844;2023-01-31T08:27:55;3.75;;;1.90;;
55417;SDS011;41287;47.554;7.844;2023-01-31T08:30:21;3.95;;;1.90;;
55417;SDS011;41287;47.554;7.844;2023-01-31T08:32:46;3.08;;;2.05;;
55417;SDS011;41287;47.554;7.844;2023-01-31T08:35:12;4.43;;;1.83;;
55417;SDS011;41287;47.554;7.844;2023-01-31T08:37:37;4.35;;;2.08;;
55417;SDS011;41287;47.554;7.844;2023-01-31T08:40:02;3.67;;;1.92;;
55417;SDS011;41287;47.554;7.844;2023-01-31T08:42:28;2.65;;;1.80;;
55417;SDS011;41287;47.554;7.844;2023-01-31T08:44:57;3.25;;;1.88;;
55417;SDS011;41287;47.554;7.844;2023-01-31T08:47:23;3.53;;;1.80;;
55417;SDS011;41287;47.554;7.844;2023-01-31T08:49:48;4.10;;;2.40;;
55417;SDS011;41287;47.554;7.844;2023-01-31T08:52:13;4.50;;;2.22;;
55417;SDS011;41287;47.554;7.844;2023-01-31T08:54:40;2.85;;;1.88;;
55417;SDS011;41287;47.554;7.844;2023-01-31T08:57:06;3.35;;;1.98;;
55417;SDS011;41287;47.554;7.844;2023-01-31T08:59:31;2.88;;;1.90;;
55417;SDS011;41287;47.554;7.844;2023-01-31T09:01:57;3.80;;;1.90;;
55417;SDS011;41287;47.554;7.844;2023-01-31T09:04:22;3.25;;;2.10;;
55417;SDS011;41287;47.554;7.844;2023-01-31T09:06:49;5.63;;;2.42;;
55417;SDS011;41287;47.554;7.844;2023-01-31T09:09:15;2.95;;;1.85;;
55417;SDS011;41287;47.554;7.844;2023-01-31T09:11:40;3.60;;;1.70;;
55417;SDS011;41287;47.554;7.844;2023-01-31T09:14:05;3.00;;;2.13;;
55417;SDS011;41287;47.554;7.844;2023-01-31T09:16:31;3.92;;;1.95;;
55417;SDS011;41287;47.554;7.844;2023-01-31T09:18:56;2.85;;;1.60;;
55417;SDS011;41287;47.554;7.844;2023-01-31T09:21:22;2.88;;;2.08;;
55417;SDS011;41287;47.554;7.844;2023-01-31T09:23:52;4.30;;;2.08;;
55417;SDS011;41287;47.554;7.844;2023-01-31T09:28:46;3.30;;;1.90;;
55417;SDS011;41287;47.554;7.844;2023-01-31T09:31:14;2.83;;;1.95;;
55417;SDS011;41287;47.554;7.844;2023-01-31T09:33:41;3.13;;;1.92;;
55417;SDS011;41287;47.554;7.844;2023-01-31T09:36:07;3.83;;;2.20;;
55417;SDS011;41287;47.554;7.844;2023-01-31T09:38:35;3.72;;;2.33;;
55417;SDS011;41287;47.554;7.844;2023-01-31T09:41:02;3.20;;;2.10;;
55417;SDS011;41287;47.554;7.844;2023-01-31T09:43:33;5.40;;;2.40;;
55417;SDS011;41287;47.554;7.844;2023-01-31T09:48:31;4.05;;;2.10;;
55417;SDS011;41287;47.554;7.844;2023-01-31T09:50:59;3.70;;;2.00;;
55417;SDS011;41287;47.554;7.844;2023-01-31T09:53:28;3.00;;;2.10;;
55417;SDS011;41287;47.554;7.844;2023-01-31T10:01:11;3.22;;;1.95;;
55417;SDS011;41287;47.554;7.844;2023-01-31T10:09:41;3.15;;;1.95;;
55417;SDS011;41287;47.554;7.844;2023-01-31T10:12:17;2.87;;;2.13;;
55417;SDS011;41287;47.554;7.844;2023-01-31T10:14:48;4.30;;;2.10;;
55417;SDS011;41287;47.554;7.844;2023-01-31T10:22:51;5.00;;;1.98;;
55417;SDS011;41287;47.554;7.844;2023-01-31T10:25:27;3.83;;;2.20;;
55417;SDS011;41287;47.554;7.844;2023-01-31T10:28:05;3.50;;;2.30;;
55417;SDS011;41287;47.554;7.844;2023-01-31T10:33:21;2.50;;;1.60;;
55417;SDS011;41287;47.554;7.844;2023-01-31T10:35:47;2.92;;;1.85;;
55417;SDS011;41287;47.554;7.844;2023-01-31T10:38:30;4.57;;;1.95;;
55417;SDS011;41287;47.554;7.844;2023-01-31T10:41:00;3.50;;;1.75;;
55417;SDS011;41287;47.554;7.844;2023-01-31T10:43:36;2.10;;;1.48;;
55417;SDS011;41287;47.554;7.844;2023-01-31T10:46:07;2.95;;;1.80;;
55417;SDS011;41287;47.554;7.844;2023-01-31T10:48:35;2.40;;;1.63;;
55417;SDS011;41287;47.554;7.844;2023-01-31T10:58:47;2.88;;;1.80;;
55417;SDS011;41287;47.554;7.844;2023-01-31T11:01:14;2.50;;;1.77;;
55417;SDS011;41287;47.554;7.844;2023-01-31T11:03:43;4.43;;;1.98;;
55417;SDS011;41287;47.554;7.844;2023-01-31T11:06:12;2.88;;;1.95;;
55417;SDS011;41287;47.554;7.844;2023-01-31T11:08:58;3.67;;;2.15;;
55417;SDS011;41287;47.554;7.844;2023-01-31T11:11:25;3.33;;;2.47;;
55417;SDS011;41287;47.554;7.844;2023-01-31T11:16:22;4.55;;;2.50;;
55417;SDS011;41287;47.554;7.844;2023-01-31T11:18:48;3.15;;;2.15;;
55417;SDS011;41287;47.554;7.844;2023-01-31T11:21:22;5.72;;;2.95;;
55417;SDS011;41287;47.554;7.844;2023-01-31T11:23:51;4.63;;;2.60;;
55417;SDS011;41287;47.554;7.844;2023-01-31T11:26:29;4.80;;;2.60;;
55417;SDS011;41287;47.554;7.844;2023-01-31T11:28:57;4.55;;;2.80;;
55417;SDS011;41287;47.554;7.844;2023-01-31T11:31:26;5.00;;;2.90;;
55417;SDS011;41287;47.554;7.844;2023-01-31T11:34:01;6.45;;;3.47;;
55417;SDS011;41287;47.554;7.844;2023-01-31T11:36:33;7.20;;;3.10;;
55417;SDS011;41287;47.554;7.844;2023-01-31T11:42:13;6.60;;;3.08;;
55417;SDS011;41287;47.554;7.844;2023-01-31T11:45:00;7.57;;;3.17;;
55417;SDS011;41287;47.554;7.844;2023-01-31T11:47:41;5.53;;;3.05;;
55417;SDS011;41287;47.554;7.844;2023-01-31T11:50:32;8.25;;;3.28;;
55417;SDS011;41287;47.554;7.844;2023-01-31T11:53:02;4.25;;;2.58;;
55417;SDS011;41287;47.554;7.844;2023-01-31T11:55:39;3.97;;;2.85;;
55417;SDS011;41287;47.554;7.844;2023-01-31T11:58:12;6.97;;;3.35;;
55417;SDS011;41287;47.554;7.844;2023-01-31T12:00:54;5.40;;;3.22;;
55417;SDS011;41287;47.554;7.844;2023-01-31T12:03:21;5.68;;;3.22;;
55417;SDS011;41287;47.554;7.844;2023-01-31T12:05:51;6.15;;;3.65;;
55417;SDS011;41287;47.554;7.844;2023-01-31T12:08:35;7.07;;;3.58;;
55417;SDS011;41287;47.554;7.844;2023-01-31T12:11:04;6.50;;;4.00;;
55417;SDS011;41287;47.554;7.844;2023-01-31T12:13:29;6.20;;;3.40;;
55417;SDS011;41287;47.554;7.844;2023-01-31T12:16:01;6.25;;;3.33;;
55417;SDS011;41287;47.554;7.844;2023-01-31T12:21:13;8.18;;;3.75;;
55417;SDS011;41287;47.554;7.844;2023-01-31T12:40:34;6.22;;;3.20;;
55417;SDS011;41287;47.554;7.844;2023-01-31T12:43:08;6.45;;;3.50;;
55417;SDS011;41287;47.554;7.844;2023-01-31T12:51:08;5.55;;;3.28;;
55417;SDS011;41287;47.554;7.844;2023-01-31T12:53:58;9.30;;;3.95;;
55417;SDS011;41287;47.554;7.844;2023-01-31T13:05:30;8.40;;;3.30;;
55417;SDS011;41287;47.554;7.844;2023-01-31T13:13:29;6.88;;;3.53;;
55417;SDS011;41287;47.554;7.844;2023-01-31T13:18:54;5.07;;;2.93;;
55417;SDS011;41287;47.554;7.844;2023-01-31T13:21:24;8.30;;;3.60;;
55417;SDS011;41287;47.554;7.844;2023-01-31T13:24:08;6.88;;;3.80;;
55417;SDS011;41287;47.554;7.844;2023-01-31T13:26:43;6.30;;;3.43;;
55417;SDS011;41287;47.554;7.844;2023-01-31T13:29:17;6.07;;;3.33;;
55417;SDS011;41287;47.554;7.844;2023-01-31T13:31:48;6.70;;;3.10;;
55417;SDS011;41287;47.554;7.844;2023-01-31T13:34:24;6.95;;;3.42;;
55417;SDS011;41287;47.554;7.844;2023-01-31T13:37:16;6.13;;;2.85;;
55417;SDS011;41287;47.554;7.844;2023-01-31T13:39:48;5.03;;;2.78;;
55417;SDS011;41287;47.554;7.844;2023-01-31T13:42:18;4.15;;;2.78;;
55417;SDS011;41287;47.554;7.844;2023-01-31T13:44:44;7.78;;;3.40;;
55417;SDS011;41287;47.554;7.844;2023-01-31T13:49:56;7.03;;;3.17;;
55417;SDS011;41287;47.554;7.844;2023-01-31T13:52:26;7.63;;;3.17;;
55417;SDS011;41287;47.554;7.844;2023-01-31T13:54:59;5.25;;;2.92;;
55417;SDS011;41287;47.554;7.844;2023-01-31T13:57:29;6.93;;;3.42;;
55417;SDS011;41287;47.554;7.844;2023-01-31T14:02:32;5.07;;;2.95;;
55417;SDS011;41287;47.554;7.844;2023-01-31T14:05:04;6.38;;;2.90;;
55417;SDS011;41287;47.554;7.844;2023-01-31T14:08:24;5.80;;;3.17;;
55417;SDS011;41287;47.554;7.844;2023-01-31T14:10:54;6.93;;;3.63;;
55417;SDS011;41287;47.554;7.844;2023-01-31T14:13:46;5.45;;;3.40;;
55417;SDS011;41287;47.554;7.844;2023-01-31T14:19:01;6.38;;;3.53;;
55417;SDS011;41287;47.554;7.844;2023-01-31T14:23:54;5.47;;;3.10;;
55417;SDS011;41287;47.554;7.844;2023-01-31T14:26:34;5.90;;;3.00;;
55417;SDS011;41287;47.554;7.844;2023-01-31T14:31:44;5.85;;;3.00;;
55417;SDS011;41287;47.554;7.844;2023-01-31T14:34:14;7.32;;;3.50;;
55417;SDS011;41287;47.554;7.844;2023-01-31T14:36:54;6.68;;;3.22;;
55417;SDS011;41287;47.554;7.844;2023-01-31T14:39:37;5.45;;;2.88;;
55417;SDS011;41287;47.554;7.844;2023-01-31T14:44:56;5.78;;;3.13;;
55417;SDS011;41287;47.554;7.844;2023-01-31T14:47:30;5.72;;;2.95;;
55417;SDS011;41287;47.554;7.844;2023-01-31T14:53:38;7.38;;;3.15;;
55417;SDS011;41287;47.554;7.844;2023-01-31T14:58:18;5.55;;;3.08;;
55417;SDS011;41287;47.554;7.844;2023-01-31T15:00:48;5.65;;;3.00;;
55417;SDS011;41287;47.554;7.844;2023-01-31T15:03:24;3.92;;;2.67;;
55417;SDS011;41287;47.554;7.844;2023-01-31T15:05:52;6.97;;;3.17;;
55417;SDS011;41287;47.554;7.844;2023-01-31T15:08:30;7.03;;;3.47;;
55417;SDS011;41287;47.554;7.844;2023-01-31T15:21:47;7.55;;;2.92;;
55417;SDS011;41287;47.554;7.844;2023-01-31T15:24:24;5.05;;;2.97;;
55417;SDS011;41287;47.554;7.844;2023-01-31T15:26:54;7.40;;;3.60;;
55417;SDS011;41287;47.554;7.844;2023-01-31T15:29:24;5.45;;;3.22;;
55417;SDS011;41287;47.554;7.844;2023-01-31T15:31:55;5.90;;;3.08;;
55417;SDS011;41287;47.554;7.844;2023-01-31T15:34:31;6.75;;;3.30;;
55417;SDS011;41287;47.554;7.844;2023-01-31T15:37:14;6.50;;;3.30;;
55417;SDS011;41287;47.554;7.844;2023-01-31T15:40:21;5.65;;;3.13;;
55417;SDS011;41287;47.554;7.844;2023-01-31T15:42:43;5.63;;;2.88;;
55417;SDS011;41287;47.554;7.844;2023-01-31T15:47:53;5.53;;;2.97;;
55417;SDS011;41287;47.554;7.844;2023-01-31T15:50:23;5.85;;;3.08;;
55417;SDS011;41287;47.554;7.844;2023-01-31T15:52:49;5.07;;;2.78;;
55417;SDS011;41287;47.554;7.844;2023-01-31T15:55:15;5.95;;;2.78;;
55417;SDS011;41287;47.554;7.844;2023-01-31T15:57:55;7.70;;;2.85;;
55417;SDS011;41287;47.554;7.844;2023-01-31T16:02:56;7.30;;;3.30;;
55417;SDS011;41287;47.554;7.844;2023-01-31T16:05:36;6.07;;;2.70;;
55417;SDS011;41287;47.554;7.844;2023-01-31T16:08:04;5.82;;;3.03;;
55417;SDS011;41287;47.554;7.844;2023-01-31T16:10:44;5.50;;;3.00;;
55417;SDS011;41287;47.554;7.844;2023-01-31T16:13:11;4.63;;;2.65;;
55417;SDS011;41287;47.554;7.844;2023-01-31T16:15:38;6.15;;;2.88;;
55417;SDS011;41287;47.554;7.844;2023-01-31T16:18:04;6.03;;;3.28;;
55417;SDS011;41287;47.554;7.844;2023-01-31T16:23:32;5.00;;;2.85;;
55417;SDS011;41287;47.554;7.844;2023-01-31T16:26:04;6.07;;;3.28;;
55417;SDS011;41287;47.554;7.844;2023-01-31T16:28:46;5.15;;;2.90;;
55417;SDS011;41287;47.554;7.844;2023-01-31T16:31:17;4.38;;;2.40;;
55417;SDS011;41287;47.554;7.844;2023-01-31T16:33:49;5.28;;;3.08;;
55417;SDS011;41287;47.554;7.844;2023-01-31T16:36:19;4.32;;;2.47;;
55417;SDS011;41287;47.554;7.844;2023-01-31T16:39:06;5.32;;;2.97;;
55417;SDS011;41287;47.554;7.844;2023-01-31T16:41:37;7.65;;;3.30;;
55417;SDS011;41287;47.554;7.844;2023-01-31T16:44:09;5.40;;;3.08;;
55417;SDS011;41287;47.554;7.844;2023-01-31T16:46:39;5.93;;;2.60;;
55417;SDS011;41287;47.554;7.844;2023-01-31T16:49:16;5.88;;;2.90;;
55417;SDS011;41287;47.554;7.844;2023-01-31T16:51:51;6.22;;;3.28;;
55417;SDS011;41287;47.554;7.844;2023-01-31T16:54:32;7.28;;;3.17;;
55417;SDS011;41287;47.554;7.844;2023-01-31T16:57:19;4.35;;;2.67;;
55417;SDS011;41287;47.554;7.844;2023-01-31T16:59:47;8.23;;;3.53;;
55417;SDS011;41287;47.554;7.844;2023-01-31T17:05:16;5.85;;;2.80;;
55417;SDS011;41287;47.554;7.844;2023-01-31T17:07:48;6.60;;;3.30;;
55417;SDS011;41287;47.554;7.844;2023-01-31T17:10:24;7.45;;;3.33;;
55417;SDS011;41287;47.554;7.844;2023-01-31T17:13:13;6.72;;;3.30;;
55417;SDS011;41287;47.554;7.844;2023-01-31T17:15:50;6.40;;;3.20;;
55417;SDS011;41287;47.554;7.844;2023-01-31T17:18:15;6.47;;;2.90;;
55417;SDS011;41287;47.554;7.844;2023-01-31T17:20:44;4.45;;;2.70;;
55417;SDS011;41287;47.554;7.844;2023-01-31T17:23:10;5.82;;;3.00;;
55417;SDS011;41287;47.554;7.844;2023-01-31T17:25:37;4.60;;;2.95;;
55417;SDS011;41287;47.554;7.844;2023-01-31T17:28:03;5.60;;;3.22;;
55417;SDS011;41287;47.554;7.844;2023-01-31T17:30:29;8.05;;;2.72;;
55417;SDS011;41287;47.554;7.844;2023-01-31T17:32:56;5.95;;;2.80;;
55417;SDS011;41287;47.554;7.844;2023-01-31T17:35:25;7.35;;;3.15;;
55417;SDS011;41287;47.554;7.844;2023-01-31T17:37:55;4.00;;;2.47;;
55417;SDS011;41287;47.554;7.844;2023-01-31T17:40:21;5.45;;;2.75;;